Samsun, Turkey
Current Conditions -  °F | °C
As of 8:50 PM on Friday 28 Nov 2014 (Local Time) from LTFH Reporting Station
Scattered Clouds Scattered Clouds  
Wind Chill: 41°   Ceiling: Unl
Heat Index: 41°   Visibility: 6mi
Dew Point: 39°   Wind: 3mph
Humidity: 93%   Direction: 160°SSE
Pressure: 30.33"   Gusts: NA
Location:  41.29°N, 36.33°E
Report Text: LTFH 281750Z 16003KT 9999 FEW018 SCT033 05/04 Q1027 NOSIG
Loading
Personal Weather Stations






























Interactive Weather Map New forecast layout! Learn more

10-Day Weather Forecast

Advertisements
Track Severe Weather on mobile